sensor_id;sensor_type;location;lat;lon;timestamp;P1;durP1;ratioP1;P2;durP2;ratioP2
7142;SDS011;3613;48.902;9.204;2023-02-04T00:02:07;8.63;;;6.17;;
7142;SDS011;3613;48.902;9.204;2023-02-04T00:04:32;9.70;;;6.57;;
7142;SDS011;3613;48.902;9.204;2023-02-04T00:07:00;8.63;;;6.43;;
7142;SDS011;3613;48.902;9.204;2023-02-04T00:09:26;9.37;;;7.20;;
7142;SDS011;3613;48.902;9.204;2023-02-04T00:11:54;9.63;;;6.87;;
7142;SDS011;3613;48.902;9.204;2023-02-04T00:14:19;11.23;;;7.60;;
7142;SDS011;3613;48.902;9.204;2023-02-04T00:16:47;11.73;;;7.63;;
7142;SDS011;3613;48.902;9.204;2023-02-04T00:19:13;12.10;;;7.83;;
7142;SDS011;3613;48.902;9.204;2023-02-04T00:21:41;10.40;;;7.43;;
7142;SDS011;3613;48.902;9.204;2023-02-04T00:24:06;10.00;;;6.40;;
7142;SDS011;3613;48.902;9.204;2023-02-04T00:26:34;10.70;;;7.17;;
7142;SDS011;3613;48.902;9.204;2023-02-04T00:29:04;10.50;;;6.70;;
7142;SDS011;3613;48.902;9.204;2023-02-04T00:31:30;11.37;;;7.03;;
7142;SDS011;3613;48.902;9.204;2023-02-04T00:33:55;9.33;;;6.77;;
7142;SDS011;3613;48.902;9.204;2023-02-04T00:36:21;8.73;;;6.10;;
7142;SDS011;3613;48.902;9.204;2023-02-04T00:38:47;9.00;;;6.10;;
7142;SDS011;3613;48.902;9.204;2023-02-04T00:41:12;8.93;;;6.20;;
7142;SDS011;3613;48.902;9.204;2023-02-04T00:43:38;9.03;;;6.27;;
7142;SDS011;3613;48.902;9.204;2023-02-04T00:46:05;9.50;;;6.20;;
7142;SDS011;3613;48.902;9.204;2023-02-04T00:48:31;11.30;;;5.93;;
7142;SDS011;3613;48.902;9.204;2023-02-04T00:50:58;10.33;;;5.63;;
7142;SDS011;3613;48.902;9.204;2023-02-04T00:53:23;8.90;;;5.53;;
7142;SDS011;3613;48.902;9.204;2023-02-04T00:55:49;9.47;;;5.40;;
7142;SDS011;3613;48.902;9.204;2023-02-04T00:58:14;8.40;;;5.77;;
7142;SDS011;3613;48.902;9.204;2023-02-04T01:00:40;7.37;;;5.40;;
7142;SDS011;3613;48.902;9.204;2023-02-04T01:03:06;9.20;;;5.00;;
7142;SDS011;3613;48.902;9.204;2023-02-04T01:05:31;7.60;;;4.80;;
7142;SDS011;3613;48.902;9.204;2023-02-04T01:08:00;9.43;;;4.77;;
7142;SDS011;3613;48.902;9.204;2023-02-04T01:10:25;7.33;;;4.70;;
7142;SDS011;3613;48.902;9.204;2023-02-04T01:12:52;5.73;;;4.07;;
7142;SDS011;3613;48.902;9.204;2023-02-04T01:15:17;7.00;;;3.90;;
7142;SDS011;3613;48.902;9.204;2023-02-04T01:17:43;7.60;;;4.03;;
7142;SDS011;3613;48.902;9.204;2023-02-04T01:20:09;7.93;;;4.40;;
7142;SDS011;3613;48.902;9.204;2023-02-04T01:22:35;9.40;;;4.20;;
7142;SDS011;3613;48.902;9.204;2023-02-04T01:25:01;10.97;;;4.60;;
7142;SDS011;3613;48.902;9.204;2023-02-04T01:27:29;8.17;;;4.27;;
7142;SDS011;3613;48.902;9.204;2023-02-04T01:29:54;5.13;;;3.40;;
7142;SDS011;3613;48.902;9.204;2023-02-04T01:32:25;7.43;;;3.50;;
7142;SDS011;3613;48.902;9.204;2023-02-04T01:34:50;4.23;;;3.53;;
7142;SDS011;3613;48.902;9.204;2023-02-04T01:37:16;7.57;;;3.40;;
7142;SDS011;3613;48.902;9.204;2023-02-04T01:39:41;4.87;;;3.17;;
7142;SDS011;3613;48.902;9.204;2023-02-04T01:42:07;6.33;;;3.70;;
7142;SDS011;3613;48.902;9.204;2023-02-04T01:44:33;5.60;;;3.40;;
7142;SDS011;3613;48.902;9.204;2023-02-04T01:46:59;6.00;;;3.87;;
7142;SDS011;3613;48.902;9.204;2023-02-04T01:49:25;6.70;;;4.10;;
7142;SDS011;3613;48.902;9.204;2023-02-04T01:51:51;6.87;;;3.80;;
7142;SDS011;3613;48.902;9.204;2023-02-04T01:54:17;7.20;;;3.93;;
7142;SDS011;3613;48.902;9.204;2023-02-04T01:56:45;5.50;;;3.87;;
7142;SDS011;3613;48.902;9.204;2023-02-04T01:59:13;8.83;;;4.63;;
7142;SDS011;3613;48.902;9.204;2023-02-04T02:01:44;4.53;;;3.37;;
7142;SDS011;3613;48.902;9.204;2023-02-04T02:04:13;6.37;;;3.50;;
7142;SDS011;3613;48.902;9.204;2023-02-04T02:06:46;5.80;;;3.70;;
7142;SDS011;3613;48.902;9.204;2023-02-04T02:09:17;5.83;;;3.67;;
7142;SDS011;3613;48.902;9.204;2023-02-04T02:11:45;5.20;;;3.60;;
7142;SDS011;3613;48.902;9.204;2023-02-04T02:14:11;7.40;;;3.63;;
7142;SDS011;3613;48.902;9.204;2023-02-04T02:16:41;6.87;;;3.17;;
7142;SDS011;3613;48.902;9.204;2023-02-04T02:19:08;5.23;;;3.50;;
7142;SDS011;3613;48.902;9.204;2023-02-04T02:21:41;7.47;;;2.90;;
7142;SDS011;3613;48.902;9.204;2023-02-04T02:26:53;6.57;;;3.00;;
7142;SDS011;3613;48.902;9.204;2023-02-04T02:29:20;10.90;;;4.27;;
7142;SDS011;3613;48.902;9.204;2023-02-04T02:31:47;9.20;;;3.47;;
7142;SDS011;3613;48.902;9.204;2023-02-04T02:34:12;7.53;;;3.20;;
7142;SDS011;3613;48.902;9.204;2023-02-04T02:36:40;4.40;;;2.70;;
7142;SDS011;3613;48.902;9.204;2023-02-04T02:39:06;6.87;;;2.70;;
7142;SDS011;3613;48.902;9.204;2023-02-04T02:41:32;9.63;;;3.33;;
7142;SDS011;3613;48.902;9.204;2023-02-04T02:43:59;4.50;;;3.10;;
7142;SDS011;3613;48.902;9.204;2023-02-04T02:46:25;4.83;;;3.00;;
7142;SDS011;3613;48.902;9.204;2023-02-04T02:48:51;3.60;;;2.70;;
7142;SDS011;3613;48.902;9.204;2023-02-04T02:51:17;4.30;;;3.00;;
7142;SDS011;3613;48.902;9.204;2023-02-04T02:53:45;6.13;;;3.20;;
7142;SDS011;3613;48.902;9.204;2023-02-04T02:56:12;6.87;;;3.03;;
7142;SDS011;3613;48.902;9.204;2023-02-04T02:58:38;6.57;;;3.40;;
7142;SDS011;3613;48.902;9.204;2023-02-04T03:01:04;8.97;;;3.17;;
7142;SDS011;3613;48.902;9.204;2023-02-04T03:03:35;10.20;;;3.23;;
7142;SDS011;3613;48.902;9.204;2023-02-04T03:06:06;6.17;;;3.23;;
7142;SDS011;3613;48.902;9.204;2023-02-04T03:08:42;7.40;;;2.93;;
7142;SDS011;3613;48.902;9.204;2023-02-04T03:11:10;9.13;;;2.90;;
7142;SDS011;3613;48.902;9.204;2023-02-04T03:13:36;8.13;;;2.70;;
7142;SDS011;3613;48.902;9.204;2023-02-04T03:16:04;8.77;;;2.90;;
7142;SDS011;3613;48.902;9.204;2023-02-04T03:18:32;7.43;;;3.13;;
7142;SDS011;3613;48.902;9.204;2023-02-04T03:21:01;5.87;;;2.50;;
7142;SDS011;3613;48.902;9.204;2023-02-04T03:23:31;12.40;;;3.67;;
7142;SDS011;3613;48.902;9.204;2023-02-04T03:25:59;9.80;;;3.43;;
7142;SDS011;3613;48.902;9.204;2023-02-04T03:28:24;8.03;;;3.00;;
7142;SDS011;3613;48.902;9.204;2023-02-04T03:30:52;11.27;;;3.60;;
7142;SDS011;3613;48.902;9.204;2023-02-04T03:33:19;7.47;;;3.43;;
7142;SDS011;3613;48.902;9.204;2023-02-04T03:35:46;11.77;;;4.50;;
7142;SDS011;3613;48.902;9.204;2023-02-04T03:38:12;8.80;;;3.30;;
7142;SDS011;3613;48.902;9.204;2023-02-04T03:40:37;8.13;;;3.10;;
7142;SDS011;3613;48.902;9.204;2023-02-04T03:43:08;10.70;;;3.37;;
7142;SDS011;3613;48.902;9.204;2023-02-04T03:45:34;7.50;;;3.03;;
7142;SDS011;3613;48.902;9.204;2023-02-04T03:48:00;6.43;;;2.67;;
7142;SDS011;3613;48.902;9.204;2023-02-04T03:50:26;11.07;;;3.40;;
7142;SDS011;3613;48.902;9.204;2023-02-04T03:52:53;6.80;;;2.67;;
7142;SDS011;3613;48.902;9.204;2023-02-04T03:55:19;8.07;;;3.50;;
7142;SDS011;3613;48.902;9.204;2023-02-04T03:57:45;8.07;;;3.10;;
7142;SDS011;3613;48.902;9.204;2023-02-04T04:00:15;13.53;;;3.27;;
7142;SDS011;3613;48.902;9.204;2023-02-04T04:02:43;7.73;;;2.63;;
7142;SDS011;3613;48.902;9.204;2023-02-04T04:05:09;7.30;;;2.83;;
7142;SDS011;3613;48.902;9.204;2023-02-04T04:07:35;10.23;;;2.87;;
7142;SDS011;3613;48.902;9.204;2023-02-04T04:10:01;7.97;;;2.87;;
7142;SDS011;3613;48.902;9.204;2023-02-04T04:12:26;6.97;;;3.00;;
7142;SDS011;3613;48.902;9.204;2023-02-04T04:14:52;11.40;;;3.47;;
7142;SDS011;3613;48.902;9.204;2023-02-04T04:17:17;7.63;;;3.03;;
7142;SDS011;3613;48.902;9.204;2023-02-04T04:19:45;9.77;;;3.13;;
7142;SDS011;3613;48.902;9.204;2023-02-04T04:22:13;7.53;;;2.87;;
7142;SDS011;3613;48.902;9.204;2023-02-04T04:24:39;8.27;;;3.37;;
7142;SDS011;3613;48.902;9.204;2023-02-04T04:27:04;15.23;;;3.33;;
7142;SDS011;3613;48.902;9.204;2023-02-04T04:29:30;6.93;;;2.93;;
7142;SDS011;3613;48.902;9.204;2023-02-04T04:31:55;4.37;;;3.10;;
7142;SDS011;3613;48.902;9.204;2023-02-04T04:34:21;5.80;;;2.57;;
7142;SDS011;3613;48.902;9.204;2023-02-04T04:36:49;7.30;;;2.83;;
7142;SDS011;3613;48.902;9.204;2023-02-04T04:39:15;6.83;;;2.93;;
7142;SDS011;3613;48.902;9.204;2023-02-04T04:41:40;8.07;;;2.87;;
7142;SDS011;3613;48.902;9.204;2023-02-04T04:44:06;9.03;;;2.90;;
7142;SDS011;3613;48.902;9.204;2023-02-04T04:46:32;5.97;;;3.80;;
7142;SDS011;3613;48.902;9.204;2023-02-04T04:49:00;6.03;;;3.10;;
7142;SDS011;3613;48.902;9.204;2023-02-04T04:51:26;8.50;;;3.00;;
7142;SDS011;3613;48.902;9.204;2023-02-04T04:53:55;8.53;;;2.77;;
7142;SDS011;3613;48.902;9.204;2023-02-04T04:56:21;5.93;;;2.93;;
7142;SDS011;3613;48.902;9.204;2023-02-04T04:58:46;7.70;;;3.43;;
7142;SDS011;3613;48.902;9.204;2023-02-04T05:01:14;8.07;;;3.53;;
7142;SDS011;3613;48.902;9.204;2023-02-04T05:03:40;9.07;;;3.20;;
7142;SDS011;3613;48.902;9.204;2023-02-04T05:06:05;9.63;;;3.57;;
7142;SDS011;3613;48.902;9.204;2023-02-04T05:08:33;6.47;;;3.83;;
7142;SDS011;3613;48.902;9.204;2023-02-04T05:10:59;9.30;;;3.33;;
7142;SDS011;3613;48.902;9.204;2023-02-04T05:13:26;7.97;;;3.50;;
7142;SDS011;3613;48.902;9.204;2023-02-04T05:15:56;10.93;;;3.40;;
7142;SDS011;3613;48.902;9.204;2023-02-04T05:18:22;8.10;;;3.20;;
7142;SDS011;3613;48.902;9.204;2023-02-04T05:20:48;6.83;;;3.83;;
7142;SDS011;3613;48.902;9.204;2023-02-04T05:23:13;11.10;;;4.17;;
7142;SDS011;3613;48.902;9.204;2023-02-04T05:25:43;11.73;;;3.70;;
7142;SDS011;3613;48.902;9.204;2023-02-04T05:28:11;8.97;;;3.47;;
7142;SDS011;3613;48.902;9.204;2023-02-04T05:30:37;11.57;;;4.60;;
7142;SDS011;3613;48.902;9.204;2023-02-04T05:33:03;12.43;;;4.27;;
7142;SDS011;3613;48.902;9.204;2023-02-04T05:35:28;11.77;;;4.10;;
7142;SDS011;3613;48.902;9.204;2023-02-04T05:37:56;11.97;;;4.23;;
7142;SDS011;3613;48.902;9.204;2023-02-04T05:40:23;12.83;;;4.33;;
7142;SDS011;3613;48.902;9.204;2023-02-04T05:42:48;14.23;;;4.40;;
7142;SDS011;3613;48.902;9.204;2023-02-04T05:45:14;8.33;;;4.57;;
7142;SDS011;3613;48.902;9.204;2023-02-04T05:47:42;7.73;;;3.80;;
7142;SDS011;3613;48.902;9.204;2023-02-04T05:50:08;8.30;;;4.13;;
7142;SDS011;3613;48.902;9.204;2023-02-04T05:52:36;10.00;;;5.07;;
7142;SDS011;3613;48.902;9.204;2023-02-04T05:55:02;9.73;;;4.37;;
7142;SDS011;3613;48.902;9.204;2023-02-04T05:57:30;13.60;;;4.87;;
7142;SDS011;3613;48.902;9.204;2023-02-04T05:59:56;16.27;;;6.07;;
7142;SDS011;3613;48.902;9.204;2023-02-04T06:02:21;9.80;;;4.40;;
7142;SDS011;3613;48.902;9.204;2023-02-04T06:04:47;13.60;;;4.93;;
7142;SDS011;3613;48.902;9.204;2023-02-04T06:07:12;8.63;;;4.87;;
7142;SDS011;3613;48.902;9.204;2023-02-04T06:09:38;9.83;;;4.53;;
7142;SDS011;3613;48.902;9.204;2023-02-04T06:12:06;14.00;;;4.70;;
7142;SDS011;3613;48.902;9.204;2023-02-04T06:14:32;11.33;;;4.90;;
7142;SDS011;3613;48.902;9.204;2023-02-04T06:16:57;15.80;;;4.83;;
7142;SDS011;3613;48.902;9.204;2023-02-04T06:19:23;11.80;;;5.50;;
7142;SDS011;3613;48.902;9.204;2023-02-04T06:21:49;10.63;;;5.00;;
7142;SDS011;3613;48.902;9.204;2023-02-04T06:24:17;10.60;;;4.77;;
7142;SDS011;3613;48.902;9.204;2023-02-04T06:26:43;9.40;;;4.40;;
7142;SDS011;3613;48.902;9.204;2023-02-04T06:29:08;10.93;;;5.30;;
7142;SDS011;3613;48.902;9.204;2023-02-04T06:31:34;13.73;;;5.27;;
7142;SDS011;3613;48.902;9.204;2023-02-04T06:34:02;14.03;;;5.17;;
7142;SDS011;3613;48.902;9.204;2023-02-04T06:36:28;14.67;;;5.70;;
7142;SDS011;3613;48.902;9.204;2023-02-04T06:38:55;12.20;;;5.77;;
7142;SDS011;3613;48.902;9.204;2023-02-04T06:41:21;15.07;;;5.47;;
7142;SDS011;3613;48.902;9.204;2023-02-04T06:43:47;13.40;;;5.43;;
7142;SDS011;3613;48.902;9.204;2023-02-04T06:46:13;11.23;;;5.30;;
7142;SDS011;3613;48.902;9.204;2023-02-04T06:48:38;12.60;;;6.13;;
7142;SDS011;3613;48.902;9.204;2023-02-04T06:51:04;12.03;;;4.77;;
7142;SDS011;3613;48.902;9.204;2023-02-04T06:53:30;10.77;;;5.30;;
7142;SDS011;3613;48.902;9.204;2023-02-04T06:55:55;14.87;;;5.87;;
7142;SDS011;3613;48.902;9.204;2023-02-04T06:58:21;14.63;;;6.07;;
7142;SDS011;3613;48.902;9.204;2023-02-04T07:00:49;16.13;;;5.43;;
7142;SDS011;3613;48.902;9.204;2023-02-04T07:03:17;14.87;;;5.30;;
7142;SDS011;3613;48.902;9.204;2023-02-04T07:05:42;13.73;;;5.03;;
7142;SDS011;3613;48.902;9.204;2023-02-04T07:08:08;11.60;;;4.93;;
7142;SDS011;3613;48.902;9.204;2023-02-04T07:10:36;12.03;;;5.27;;
7142;SDS011;3613;48.902;9.204;2023-02-04T07:13:02;7.97;;;5.07;;
7142;SDS011;3613;48.902;9.204;2023-02-04T07:15:27;19.57;;;5.67;;
7142;SDS011;3613;48.902;9.204;2023-02-04T07:17:53;12.43;;;5.63;;
7142;SDS011;3613;48.902;9.204;2023-02-04T07:20:18;11.67;;;5.53;;
7142;SDS011;3613;48.902;9.204;2023-02-04T07:22:44;12.27;;;5.50;;
7142;SDS011;3613;48.902;9.204;2023-02-04T07:25:10;13.83;;;5.30;;
7142;SDS011;3613;48.902;9.204;2023-02-04T07:27:38;11.17;;;5.63;;
7142;SDS011;3613;48.902;9.204;2023-02-04T07:30:04;12.43;;;5.20;;
7142;SDS011;3613;48.902;9.204;2023-02-04T07:32:32;12.33;;;5.07;;
7142;SDS011;3613;48.902;9.204;2023-02-04T07:34:59;12.50;;;5.50;;
7142;SDS011;3613;48.902;9.204;2023-02-04T07:37:24;12.27;;;5.00;;
7142;SDS011;3613;48.902;9.204;2023-02-04T07:39:50;10.47;;;5.07;;
7142;SDS011;3613;48.902;9.204;2023-02-04T07:42:18;10.83;;;4.30;;
7142;SDS011;3613;48.902;9.204;2023-02-04T07:44:46;12.33;;;5.13;;
7142;SDS011;3613;48.902;9.204;2023-02-04T07:47:11;16.10;;;5.00;;
7142;SDS011;3613;48.902;9.204;2023-02-04T07:49:37;12.37;;;4.83;;
7142;SDS011;3613;48.902;9.204;2023-02-04T07:52:06;9.97;;;4.37;;
7142;SDS011;3613;48.902;9.204;2023-02-04T07:54:31;9.97;;;4.83;;
7142;SDS011;3613;48.902;9.204;2023-02-04T07:56:59;13.53;;;5.00;;
7142;SDS011;3613;48.902;9.204;2023-02-04T07:59:25;11.93;;;3.93;;
7142;SDS011;3613;48.902;9.204;2023-02-04T08:01:53;10.33;;;4.27;;
7142;SDS011;3613;48.902;9.204;2023-02-04T08:04:21;8.77;;;4.80;;
7142;SDS011;3613;48.902;9.204;2023-02-04T08:06:46;17.17;;;5.47;;
7142;SDS011;3613;48.902;9.204;2023-02-04T08:09:14;9.10;;;4.27;;
7142;SDS011;3613;48.902;9.204;2023-02-04T08:11:42;12.03;;;4.93;;
7142;SDS011;3613;48.902;9.204;2023-02-04T08:14:08;11.70;;;4.77;;
7142;SDS011;3613;48.902;9.204;2023-02-04T08:16:33;15.07;;;5.70;;
7142;SDS011;3613;48.902;9.204;2023-02-04T08:18:59;14.80;;;4.47;;
7142;SDS011;3613;48.902;9.204;2023-02-04T08:21:25;9.27;;;4.50;;
7142;SDS011;3613;48.902;9.204;2023-02-04T08:23:50;11.47;;;5.03;;
7142;SDS011;3613;48.902;9.204;2023-02-04T08:26:16;14.53;;;5.07;;
7142;SDS011;3613;48.902;9.204;2023-02-04T08:28:41;11.33;;;4.57;;
7142;SDS011;3613;48.902;9.204;2023-02-04T08:31:07;12.77;;;5.20;;
7142;SDS011;3613;48.902;9.204;2023-02-04T08:33:36;7.93;;;4.93;;
7142;SDS011;3613;48.902;9.204;2023-02-04T08:36:05;11.60;;;4.70;;
7142;SDS011;3613;48.902;9.204;2023-02-04T08:38:33;16.63;;;5.87;;
7142;SDS011;3613;48.902;9.204;2023-02-04T08:40:59;11.77;;;6.07;;
7142;SDS011;3613;48.902;9.204;2023-02-04T08:43:25;11.73;;;4.70;;
7142;SDS011;3613;48.902;9.204;2023-02-04T08:45:51;15.63;;;5.43;;
7142;SDS011;3613;48.902;9.204;2023-02-04T08:48:16;9.07;;;4.80;;
7142;SDS011;3613;48.902;9.204;2023-02-04T08:50:42;14.63;;;5.30;;
7142;SDS011;3613;48.902;9.204;2023-02-04T08:53:08;12.10;;;5.03;;
7142;SDS011;3613;48.902;9.204;2023-02-04T08:55:34;11.20;;;5.57;;
7142;SDS011;3613;48.902;9.204;2023-02-04T08:58:03;12.90;;;5.23;;
7142;SDS011;3613;48.902;9.204;2023-02-04T09:00:31;15.43;;;6.43;;
7142;SDS011;3613;48.902;9.204;2023-02-04T09:02:57;11.00;;;6.00;;
7142;SDS011;3613;48.902;9.204;2023-02-04T09:05:27;12.17;;;5.70;;
7142;SDS011;3613;48.902;9.204;2023-02-04T09:07:53;12.80;;;5.93;;
7142;SDS011;3613;48.902;9.204;2023-02-04T09:10:20;12.83;;;5.60;;
7142;SDS011;3613;48.902;9.204;2023-02-04T09:12:46;14.73;;;5.23;;
7142;SDS011;3613;48.902;9.204;2023-02-04T09:15:12;13.60;;;6.10;;
7142;SDS011;3613;48.902;9.204;2023-02-04T09:17:37;13.23;;;6.63;;
7142;SDS011;3613;48.902;9.204;2023-02-04T09:20:04;12.13;;;5.43;;
7142;SDS011;3613;48.902;9.204;2023-02-04T09:22:30;12.40;;;5.33;;
7142;SDS011;3613;48.902;9.204;2023-02-04T09:24:56;11.20;;;4.93;;
7142;SDS011;3613;48.902;9.204;2023-02-04T09:27:22;8.93;;;4.63;;
7142;SDS011;3613;48.902;9.204;2023-02-04T09:29:47;12.20;;;6.03;;
7142;SDS011;3613;48.902;9.204;2023-02-04T09:32:13;13.73;;;6.23;;
7142;SDS011;3613;48.902;9.204;2023-02-04T09:34:41;7.37;;;3.97;;
7142;SDS011;3613;48.902;9.204;2023-02-04T09:37:06;11.17;;;4.23;;
7142;SDS011;3613;48.902;9.204;2023-02-04T09:39:32;12.70;;;4.07;;
7142;SDS011;3613;48.902;9.204;2023-02-04T09:41:57;11.93;;;4.13;;
7142;SDS011;3613;48.902;9.204;2023-02-04T09:44:23;11.33;;;4.43;;
7142;SDS011;3613;48.902;9.204;2023-02-04T09:46:55;11.97;;;3.43;;
7142;SDS011;3613;48.902;9.204;2023-02-04T09:49:24;10.63;;;4.67;;
7142;SDS011;3613;48.902;9.204;2023-02-04T09:51:53;10.57;;;3.73;;
7142;SDS011;3613;48.902;9.204;2023-02-04T09:54:20;10.80;;;4.00;;
7142;SDS011;3613;48.902;9.204;2023-02-04T09:56:47;11.60;;;4.10;;
7142;SDS011;3613;48.902;9.204;2023-02-04T09:59:17;11.30;;;3.63;;
7142;SDS011;3613;48.902;9.204;2023-02-04T10:01:50;11.37;;;4.43;;
7142;SDS011;3613;48.902;9.204;2023-02-04T10:04:37;11.90;;;4.00;;
7142;SDS011;3613;48.902;9.204;2023-02-04T10:07:04;11.63;;;4.00;;
7142;SDS011;3613;48.902;9.204;2023-02-04T10:09:36;11.77;;;3.70;;
7142;SDS011;3613;48.902;9.204;2023-02-04T10:12:02;14.37;;;3.70;;
7142;SDS011;3613;48.902;9.204;2023-02-04T10:14:28;12.57;;;4.17;;
7142;SDS011;3613;48.902;9.204;2023-02-04T10:16:55;11.07;;;3.67;;
7142;SDS011;3613;48.902;9.204;2023-02-04T10:19:23;10.40;;;4.30;;
7142;SDS011;3613;48.902;9.204;2023-02-04T10:21:49;12.33;;;3.63;;
7142;SDS011;3613;48.902;9.204;2023-02-04T10:24:20;15.47;;;4.43;;
7142;SDS011;3613;48.902;9.204;2023-02-04T10:26:53;8.70;;;3.90;;
7142;SDS011;3613;48.902;9.204;2023-02-04T10:29:23;13.97;;;4.07;;
7142;SDS011;3613;48.902;9.204;2023-02-04T10:31:50;9.80;;;3.10;;
7142;SDS011;3613;48.902;9.204;2023-02-04T10:34:17;10.37;;;3.77;;
7142;SDS011;3613;48.902;9.204;2023-02-04T10:36:45;13.83;;;3.53;;
7142;SDS011;3613;48.902;9.204;2023-02-04T10:41:43;14.97;;;4.00;;
7142;SDS011;3613;48.902;9.204;2023-02-04T10:44:18;7.47;;;3.17;;
7142;SDS011;3613;48.902;9.204;2023-02-04T10:47:14;16.53;;;3.63;;
7142;SDS011;3613;48.902;9.204;2023-02-04T10:50:44;10.23;;;3.60;;
7142;SDS011;3613;48.902;9.204;2023-02-04T10:52:40;6.03;;;3.23;;
7142;SDS011;3613;48.902;9.204;2023-02-04T10:55:13;9.53;;;3.30;;
7142;SDS011;3613;48.902;9.204;2023-02-04T10:57:44;12.00;;;3.20;;
7142;SDS011;3613;48.902;9.204;2023-02-04T11:00:22;13.27;;;3.83;;
7142;SDS011;3613;48.902;9.204;2023-02-04T11:05:48;10.57;;;3.03;;
7142;SDS011;3613;48.902;9.204;2023-02-04T11:08:19;9.23;;;3.40;;
7142;SDS011;3613;48.902;9.204;2023-02-04T11:10:54;14.33;;;4.03;;
7142;SDS011;3613;48.902;9.204;2023-02-04T11:18:42;10.57;;;3.00;;
7142;SDS011;3613;48.902;9.204;2023-02-04T11:21:19;11.20;;;3.20;;
7142;SDS011;3613;48.902;9.204;2023-02-04T11:23:48;12.00;;;4.10;;
7142;SDS011;3613;48.902;9.204;2023-02-04T11:26:15;14.20;;;3.33;;
7142;SDS011;3613;48.902;9.204;2023-02-04T11:41:59;12.07;;;3.20;;
7142;SDS011;3613;48.902;9.204;2023-02-04T11:44:25;10.47;;;2.93;;
7142;SDS011;3613;48.902;9.204;2023-02-04T11:46:54;10.40;;;3.10;;
7142;SDS011;3613;48.902;9.204;2023-02-04T11:49:20;9.40;;;3.30;;
7142;SDS011;3613;48.902;9.204;2023-02-04T11:51:47;13.00;;;3.77;;
7142;SDS011;3613;48.902;9.204;2023-02-04T11:54:17;8.57;;;2.87;;
7142;SDS011;3613;48.902;9.204;2023-02-04T11:56:45;12.10;;;3.90;;
7142;SDS011;3613;48.902;9.204;2023-02-04T11:59:12;9.70;;;3.23;;
7142;SDS011;3613;48.902;9.204;2023-02-04T12:01:38;12.70;;;3.67;;
7142;SDS011;3613;48.902;9.204;2023-02-04T12:04:05;10.73;;;2.70;;
7142;SDS011;3613;48.902;9.204;2023-02-04T12:06:55;5.27;;;2.73;;
7142;SDS011;3613;48.902;9.204;2023-02-04T12:09:28;18.17;;;3.77;;
7142;SDS011;3613;48.902;9.204;2023-02-04T12:14:20;8.43;;;2.97;;
7142;SDS011;3613;48.902;9.204;2023-02-04T12:16:55;12.07;;;2.97;;
7142;SDS011;3613;48.902;9.204;2023-02-04T12:19:20;13.63;;;2.90;;
7142;SDS011;3613;48.902;9.204;2023-02-04T12:21:46;9.77;;;2.97;;
7142;SDS011;3613;48.902;9.204;2023-02-04T12:24:14;10.47;;;3.23;;
7142;SDS011;3613;48.902;9.204;2023-02-04T12:26:42;11.13;;;3.73;;
7142;SDS011;3613;48.902;9.204;2023-02-04T12:29:08;9.80;;;3.60;;
7142;SDS011;3613;48.902;9.204;2023-02-04T12:31:34;9.90;;;3.47;;
7142;SDS011;3613;48.902;9.204;2023-02-04T12:33:59;10.27;;;3.23;;
7142;SDS011;3613;48.902;9.204;2023-02-04T12:36:28;10.20;;;3.73;;
7142;SDS011;3613;48.902;9.204;2023-02-04T12:38:54;11.67;;;3.70;;
7142;SDS011;3613;48.902;9.204;2023-02-04T12:41:22;11.77;;;3.57;;
7142;SDS011;3613;48.902;9.204;2023-02-04T12:43:48;12.47;;;3.83;;
7142;SDS011;3613;48.902;9.204;2023-02-04T12:46:14;12.97;;;3.37;;
7142;SDS011;3613;48.902;9.204;2023-02-04T12:48:40;14.83;;;3.50;;
7142;SDS011;3613;48.902;9.204;2023-02-04T12:51:07;15.20;;;3.77;;
7142;SDS011;3613;48.902;9.204;2023-02-04T12:53:33;8.70;;;2.97;;
7142;SDS011;3613;48.902;9.204;2023-02-04T12:56:01;11.10;;;3.87;;
7142;SDS011;3613;48.902;9.204;2023-02-04T12:58:29;11.83;;;3.70;;
7142;SDS011;3613;48.902;9.204;2023-02-04T13:00:59;12.47;;;3.40;;
7142;SDS011;3613;48.902;9.204;2023-02-04T13:03:25;11.10;;;3.60;;
7142;SDS011;3613;48.902;9.204;2023-02-04T13:05:50;16.13;;;3.60;;
7142;SDS011;3613;48.902;9.204;2023-02-04T13:08:16;10.37;;;3.60;;
7142;SDS011;3613;48.902;9.204;2023-02-04T13:10:41;10.13;;;2.90;;
7142;SDS011;3613;48.902;9.204;2023-02-04T13:13:07;13.13;;;4.30;;
7142;SDS011;3613;48.902;9.204;2023-02-04T13:15:33;10.00;;;3.27;;
7142;SDS011;3613;48.902;9.204;2023-02-04T13:17:58;12.57;;;3.43;;
7142;SDS011;3613;48.902;9.204;2023-02-04T13:20:24;8.40;;;3.90;;
7142;SDS011;3613;48.902;9.204;2023-02-04T13:22:50;11.53;;;4.10;;
7142;SDS011;3613;48.902;9.204;2023-02-04T13:25:15;12.17;;;3.13;;
7142;SDS011;3613;48.902;9.204;2023-02-04T13:27:41;12.40;;;3.13;;
7142;SDS011;3613;48.902;9.204;2023-02-04T13:30:10;10.30;;;3.50;;
7142;SDS011;3613;48.902;9.204;2023-02-04T13:32:42;8.37;;;3.03;;
7142;SDS011;3613;48.902;9.204;2023-02-04T13:35:08;9.87;;;2.90;;
7142;SDS011;3613;48.902;9.204;2023-02-04T13:37:36;8.70;;;2.77;;
7142;SDS011;3613;48.902;9.204;2023-02-04T13:40:02;8.07;;;3.07;;
7142;SDS011;3613;48.902;9.204;2023-02-04T13:42:29;8.93;;;2.50;;
7142;SDS011;3613;48.902;9.204;2023-02-04T13:44:54;13.57;;;3.53;;
7142;SDS011;3613;48.902;9.204;2023-02-04T13:47:20;8.67;;;3.03;;
7142;SDS011;3613;48.902;9.204;2023-02-04T13:49:46;10.70;;;3.30;;
7142;SDS011;3613;48.902;9.204;2023-02-04T13:52:12;10.03;;;2.93;;
7142;SDS011;3613;48.902;9.204;2023-02-04T13:54:38;7.93;;;2.83;;
7142;SDS011;3613;48.902;9.204;2023-02-04T13:57:05;14.97;;;3.73;;
7142;SDS011;3613;48.902;9.204;2023-02-04T13:59:30;12.40;;;3.40;;
7142;SDS011;3613;48.902;9.204;2023-02-04T14:01:58;11.97;;;3.10;;
7142;SDS011;3613;48.902;9.204;2023-02-04T14:04:27;9.03;;;2.83;;
7142;SDS011;3613;48.902;9.204;2023-02-04T14:06:53;7.57;;;2.60;;
7142;SDS011;3613;48.902;9.204;2023-02-04T14:09:21;9.50;;;2.80;;
7142;SDS011;3613;48.902;9.204;2023-02-04T14:11:50;7.43;;;2.40;;
7142;SDS011;3613;48.902;9.204;2023-02-04T14:14:20;10.13;;;2.70;;
7142;SDS011;3613;48.902;9.204;2023-02-04T14:16:46;7.93;;;2.40;;
7142;SDS011;3613;48.902;9.204;2023-02-04T14:19:13;8.73;;;2.57;;
7142;SDS011;3613;48.902;9.204;2023-02-04T14:21:39;8.67;;;2.63;;
7142;SDS011;3613;48.902;9.204;2023-02-04T14:24:05;9.97;;;2.87;;
7142;SDS011;3613;48.902;9.204;2023-02-04T14:26:36;7.97;;;2.90;;
7142;SDS011;3613;48.902;9.204;2023-02-04T14:29:01;7.00;;;2.30;;
7142;SDS011;3613;48.902;9.204;2023-02-04T14:31:30;10.40;;;2.77;;
7142;SDS011;3613;48.902;9.204;2023-02-04T14:33:56;9.10;;;3.13;;
7142;SDS011;3613;48.902;9.204;2023-02-04T14:36:23;7.00;;;2.93;;
7142;SDS011;3613;48.902;9.204;2023-02-04T14:38:48;11.60;;;2.67;;
7142;SDS011;3613;48.902;9.204;2023-02-04T14:41:14;7.17;;;2.47;;
7142;SDS011;3613;48.902;9.204;2023-02-04T14:43:43;7.57;;;2.47;;
7142;SDS011;3613;48.902;9.204;2023-02-04T14:46:09;6.23;;;2.30;;
7142;SDS011;3613;48.902;9.204;2023-02-04T14:48:35;8.13;;;2.40;;
7142;SDS011;3613;48.902;9.204;2023-02-04T14:51:00;8.73;;;2.70;;
7142;SDS011;3613;48.902;9.204;2023-02-04T14:53:31;6.67;;;2.77;;
7142;SDS011;3613;48.902;9.204;2023-02-04T14:55:59;5.03;;;2.10;;
7142;SDS011;3613;48.902;9.204;2023-02-04T14:58:25;5.60;;;2.07;;
7142;SDS011;3613;48.902;9.204;2023-02-04T15:00:51;6.70;;;2.20;;
7142;SDS011;3613;48.902;9.204;2023-02-04T15:03:19;6.93;;;1.97;;
7142;SDS011;3613;48.902;9.204;2023-02-04T15:05:47;8.53;;;2.50;;
7142;SDS011;3613;48.902;9.204;2023-02-04T15:08:12;9.07;;;2.43;;
7142;SDS011;3613;48.902;9.204;2023-02-04T15:10:38;7.13;;;2.57;;
7142;SDS011;3613;48.902;9.204;2023-02-04T15:13:04;5.13;;;2.30;;
7142;SDS011;3613;48.902;9.204;2023-02-04T15:15:31;4.20;;;2.10;;
7142;SDS011;3613;48.902;9.204;2023-02-04T15:17:57;5.60;;;2.20;;
7142;SDS011;3613;48.902;9.204;2023-02-04T15:20:27;7.47;;;2.17;;
7142;SDS011;3613;48.902;9.204;2023-02-04T15:22:53;6.53;;;2.30;;
7142;SDS011;3613;48.902;9.204;2023-02-04T15:25:20;5.37;;;2.37;;
7142;SDS011;3613;48.902;9.204;2023-02-04T15:27:46;7.00;;;2.87;;
7142;SDS011;3613;48.902;9.204;2023-02-04T15:30:12;8.77;;;2.60;;
7142;SDS011;3613;48.902;9.204;2023-02-04T15:32:38;6.50;;;2.40;;
7142;SDS011;3613;48.902;9.204;2023-02-04T15:35:08;9.00;;;2.83;;
7142;SDS011;3613;48.902;9.204;2023-02-04T15:37:34;6.50;;;3.13;;